Margaret — WDC3267 — position and weather

sailwx.info

Track history (hours):
 
Tides and Currents Weather Stations Pressure Air Temp Water Temp Dewpoint Dewpoint Depression Visibility Wind Speed Wind Dir Waves Ship Positions

Margaret

Owner: Cooper Marine & Timberlands Corporation, Mobile, AL. More information available from US FCC via Universal Licensing System and Coast Guard Vessel Documentation Center.

Last reported at 2014-Nov-24 01:14 UTC. Time now 2014-Nov-27 00:15 UTC.
Position N 30°00' W 089°58'.

; draft 9 m.

Type: Towing. MMSI: 367004940.

Date/timePositionNaut miles runAvg speedWind from/ knotsBaromVisibWave heightAir tempDewpointWater temp
2014-Nov-24 01:14N 30°00' W 089°58'3 3.6
2014-Nov-24 00:30N 29°60' W 090°01'0 0.3
2014-Nov-23 23:34N 29°60' W 090°00'0 0.0
2014-Nov-23 22:32N 29°60' W 090°00'0 0.0
2014-Nov-23 21:31N 29°60' W 090°00'0 0.0
2014-Nov-23 20:31N 29°60' W 090°00'0 0.0
2014-Nov-23 19:32N 29°60' W 090°00'0 0.0
2014-Nov-23 18:33N 29°60' W 090°00'0 0.0
2014-Nov-23 17:27N 29°60' W 090°01'0 0.0
2014-Nov-23 16:32N 29°60' W 090°00'0 0.0
2014-Nov-23 15:33N 29°60' W 090°00'0 0.0
2014-Nov-23 14:32N 29°60' W 090°00'0 0.0
2014-Nov-23 12:26N 29°60' W 090°00'0 0.0
2014-Nov-23 01:17N 29°60' W 090°01'0 0.1
2014-Nov-23 00:33N 29°60' W 090°01'0 0.1
2014-Nov-22 23:16N 29°60' W 090°01'0 0.0
2014-Nov-22 22:06N 29°60' W 090°01'2 3.0
2014-Nov-22 21:29N 29°58' W 090°02'1 1.0
2014-Nov-22 20:31N 29°57' W 090°02'0 0.3
2014-Nov-22 19:33N 29°57' W 090°02'0 0.0
2014-Nov-22 18:31N 29°57' W 090°02'0 0.0
2014-Nov-22 17:24N 29°57' W 090°02'0 0.0
2014-Nov-22 16:31N 29°57' W 090°02'0 0.0
2014-Nov-22 14:31N 29°57' W 090°02'0 0.0
2014-Nov-22 13:32N 29°57' W 090°02'0 0.0
2014-Nov-22 12:27N 29°57' W 090°02'0 0.0
2014-Nov-22 11:32N 29°57' W 090°02'0 0.0
2014-Nov-22 10:25N 29°57' W 090°02'0 0.0
2014-Nov-22 09:30N 29°57' W 090°02'0 0.0
2014-Nov-22 08:15N 29°57' W 090°02'0 0.0
2014-Nov-22 07:26N 29°57' W 090°02'0 0.0
2014-Nov-22 06:21N 29°57' W 090°02'0 0.0
2014-Nov-22 05:31N 29°57' W 090°02'0 0.0
2014-Nov-22 04:33N 29°57' W 090°02'0 0.0
2014-Nov-22 03:33N 29°57' W 090°02'0 0.0
2014-Nov-22 02:33N 29°57' W 090°02'0 0.0
2014-Nov-22 01:33N 29°57' W 090°02'0 0.0
2014-Nov-22 00:33N 29°57' W 090°02'0 0.0
2014-Nov-21 23:32N 29°57' W 090°02'0 0.0
2014-Nov-21 22:33N 29°57' W 090°02'0 0.0
2014-Nov-21 21:32N 29°57' W 090°02'0 0.0
2014-Nov-21 20:33N 29°57' W 090°02'0 0.0
2014-Nov-21 19:25N 29°57' W 090°02'1 0.6
2014-Nov-21 18:32N 29°57' W 090°03'1 0.5
2014-Nov-21 17:28N 29°57' W 090°02'0 0.0
2014-Nov-21 16:29N 29°57' W 090°02'0 0.1
2014-Nov-21 15:32N 29°57' W 090°02'0 0.5
2014-Nov-21 14:33N 29°57' W 090°03'0 0.0
2014-Nov-21 13:33N 29°57' W 090°03'0 0.0
2014-Nov-21 12:31N 29°57' W 090°03'1 0.5
2014-Nov-21 11:27N 29°57' W 090°02'1 0.9
2014-Nov-21 10:26N 29°58' W 090°03'5 4.9
2014-Nov-21 09:28N 29°54' W 090°07'1 0.4
2014-Nov-21 05:19N 29°56' W 090°08'3 0.8
2014-Nov-21 01:30N 29°55' W 090°05'4 3.1
2014-Nov-21 00:13N 29°58' W 090°02'2 2.3
2014-Nov-20 23:18N 29°60' W 090°00'1 1.5
2014-Nov-20 22:32N 30°00' W 089°59'1 1.1
2014-Nov-20 21:32N 29°60' W 090°01'0 0.0
2014-Nov-20 19:31N 29°60' W 090°01'0 0.0
2014-Nov-20 18:25N 29°60' W 090°01'0 0.0
2014-Nov-20 17:32N 29°60' W 090°01'0 0.0
2014-Nov-20 16:32N 29°60' W 090°01'0 0.0
2014-Nov-20 15:30N 29°60' W 090°00'0 0.0
2014-Nov-20 14:32N 29°60' W 090°01'0 0.0
2014-Nov-20 13:33N 29°60' W 090°01'0 0.0
2014-Nov-20 12:33N 29°60' W 090°01'  
Track history (hours):
 
Tides and Currents Weather Stations Pressure Air Temp Water Temp Dewpoint Dewpoint Depression Visibility Wind Speed Wind Dir Waves Ship Positions

Margaret

Owner: Cooper Marine & Timberlands Corporation, Mobile, AL. More information available from US FCC via Universal Licensing System and Coast Guard Vessel Documentation Center.

Last reported at 2014-Nov-24 01:14 UTC. Time now 2014-Nov-27 00:15 UTC.
Position N 30°00' W 089°58'.

; draft 9 m.

Type: Towing. MMSI: 367004940.

Date/timePositionNaut miles runAvg speedWind from/ knotsBaromVisibWave heightAir tempDewpointWater temp
2014-Nov-24 01:14N 30°00' W 089°58'3 3.6
2014-Nov-24 00:30N 29°60' W 090°01'0 0.3
2014-Nov-23 23:34N 29°60' W 090°00'0 0.0
2014-Nov-23 22:32N 29°60' W 090°00'0 0.0
2014-Nov-23 21:31N 29°60' W 090°00'0 0.0
2014-Nov-23 20:31N 29°60' W 090°00'0 0.0
2014-Nov-23 19:32N 29°60' W 090°00'0 0.0
2014-Nov-23 18:33N 29°60' W 090°00'0 0.0
2014-Nov-23 17:27N 29°60' W 090°01'0 0.0
2014-Nov-23 16:32N 29°60' W 090°00'0 0.0
2014-Nov-23 15:33N 29°60' W 090°00'0 0.0
2014-Nov-23 14:32N 29°60' W 090°00'0 0.0
2014-Nov-23 12:26N 29°60' W 090°00'0 0.0
2014-Nov-23 01:17N 29°60' W 090°01'0 0.1
2014-Nov-23 00:33N 29°60' W 090°01'0 0.1
2014-Nov-22 23:16N 29°60' W 090°01'0 0.0
2014-Nov-22 22:06N 29°60' W 090°01'2 3.0
2014-Nov-22 21:29N 29°58' W 090°02'1 1.0
2014-Nov-22 20:31N 29°57' W 090°02'0 0.3
2014-Nov-22 19:33N 29°57' W 090°02'0 0.0
2014-Nov-22 18:31N 29°57' W 090°02'0 0.0
2014-Nov-22 17:24N 29°57' W 090°02'0 0.0
2014-Nov-22 16:31N 29°57' W 090°02'0 0.0
2014-Nov-22 14:31N 29°57' W 090°02'0 0.0
2014-Nov-22 13:32N 29°57' W 090°02'0 0.0
2014-Nov-22 12:27N 29°57' W 090°02'0 0.0
2014-Nov-22 11:32N 29°57' W 090°02'0 0.0
2014-Nov-22 10:25N 29°57' W 090°02'0 0.0
2014-Nov-22 09:30N 29°57' W 090°02'0 0.0
2014-Nov-22 08:15N 29°57' W 090°02'0 0.0
2014-Nov-22 07:26N 29°57' W 090°02'0 0.0
2014-Nov-22 06:21N 29°57' W 090°02'0 0.0
2014-Nov-22 05:31N 29°57' W 090°02'0 0.0
2014-Nov-22 04:33N 29°57' W 090°02'0 0.0
2014-Nov-22 03:33N 29°57' W 090°02'0 0.0
2014-Nov-22 02:33N 29°57' W 090°02'0 0.0
2014-Nov-22 01:33N 29°57' W 090°02'0 0.0
2014-Nov-22 00:33N 29°57' W 090°02'0 0.0
2014-Nov-21 23:32N 29°57' W 090°02'0 0.0
2014-Nov-21 22:33N 29°57' W 090°02'0 0.0
2014-Nov-21 21:32N 29°57' W 090°02'0 0.0
2014-Nov-21 20:33N 29°57' W 090°02'0 0.0
2014-Nov-21 19:25N 29°57' W 090°02'1 0.6
2014-Nov-21 18:32N 29°57' W 090°03'1 0.5
2014-Nov-21 17:28N 29°57' W 090°02'0 0.0
2014-Nov-21 16:29N 29°57' W 090°02'0 0.1
2014-Nov-21 15:32N 29°57' W 090°02'0 0.5
2014-Nov-21 14:33N 29°57' W 090°03'0 0.0
2014-Nov-21 13:33N 29°57' W 090°03'0 0.0
2014-Nov-21 12:31N 29°57' W 090°03'1 0.5
2014-Nov-21 11:27N 29°57' W 090°02'1 0.9
2014-Nov-21 10:26N 29°58' W 090°03'5 4.9
2014-Nov-21 09:28N 29°54' W 090°07'1 0.4
2014-Nov-21 05:19N 29°56' W 090°08'3 0.8
2014-Nov-21 01:30N 29°55' W 090°05'4 3.1
2014-Nov-21 00:13N 29°58' W 090°02'2 2.3
2014-Nov-20 23:18N 29°60' W 090°00'1 1.5
2014-Nov-20 22:32N 30°00' W 089°59'1 1.1
2014-Nov-20 21:32N 29°60' W 090°01'0 0.0
2014-Nov-20 19:31N 29°60' W 090°01'0 0.0
2014-Nov-20 18:25N 29°60' W 090°01'0 0.0
2014-Nov-20 17:32N 29°60' W 090°01'0 0.0
2014-Nov-20 16:32N 29°60' W 090°01'0 0.0
2014-Nov-20 15:30N 29°60' W 090°00'0 0.0
2014-Nov-20 14:32N 29°60' W 090°01'0 0.0
2014-Nov-20 13:33N 29°60' W 090°01'0 0.0
2014-Nov-20 12:33N 29°60' W 090°01'  

Dump ship's entire track history